sensor_id;sensor_type;location;lat;lon;timestamp;P1;durP1;ratioP1;P2;durP2;ratioP2
18931;SDS011;9598;50.954;3.112;2023-04-15T00:00:00;3.88;;;3.55;;
18931;SDS011;9598;50.954;3.112;2023-04-15T00:05:14;3.90;;;3.60;;
18931;SDS011;9598;50.954;3.112;2023-04-15T00:10:16;4.22;;;3.88;;
18931;SDS011;9598;50.954;3.112;2023-04-15T00:15:18;4.30;;;3.90;;
18931;SDS011;9598;50.954;3.112;2023-04-15T00:20:23;4.43;;;3.63;;
18931;SDS011;9598;50.954;3.112;2023-04-15T00:25:25;4.25;;;3.88;;
18931;SDS011;9598;50.954;3.112;2023-04-15T00:30:27;4.10;;;3.78;;
18931;SDS011;9598;50.954;3.112;2023-04-15T00:35:32;5.43;;;3.67;;
18931;SDS011;9598;50.954;3.112;2023-04-15T00:40:35;4.80;;;4.30;;
18931;SDS011;9598;50.954;3.112;2023-04-15T00:45:38;5.05;;;4.65;;
18931;SDS011;9598;50.954;3.112;2023-04-15T00:50:41;5.72;;;5.13;;
18931;SDS011;9598;50.954;3.112;2023-04-15T00:55:43;6.63;;;4.90;;
18931;SDS011;9598;50.954;3.112;2023-04-15T01:00:45;5.20;;;4.80;;
18931;SDS011;9598;50.954;3.112;2023-04-15T01:05:49;5.40;;;4.88;;
18931;SDS011;9598;50.954;3.112;2023-04-15T01:10:57;4.32;;;3.92;;
18931;SDS011;9598;50.954;3.112;2023-04-15T01:16:03;4.28;;;3.97;;
18931;SDS011;9598;50.954;3.112;2023-04-15T01:21:07;4.85;;;4.30;;
18931;SDS011;9598;50.954;3.112;2023-04-15T01:26:10;4.20;;;3.90;;
18931;SDS011;9598;50.954;3.112;2023-04-15T01:31:13;5.05;;;4.38;;
18931;SDS011;9598;50.954;3.112;2023-04-15T01:36:16;4.20;;;3.88;;
18931;SDS011;9598;50.954;3.112;2023-04-15T01:41:22;4.65;;;4.25;;
18931;SDS011;9598;50.954;3.112;2023-04-15T01:46:26;4.95;;;4.45;;
18931;SDS011;9598;50.954;3.112;2023-04-15T01:51:28;3.97;;;3.63;;
18931;SDS011;9598;50.954;3.112;2023-04-15T01:56:32;7.78;;;5.15;;
18931;SDS011;9598;50.954;3.112;2023-04-15T02:01:34;5.10;;;4.63;;
18931;SDS011;9598;50.954;3.112;2023-04-15T02:06:37;5.13;;;4.70;;
18931;SDS011;9598;50.954;3.112;2023-04-15T02:11:41;4.72;;;4.40;;
18931;SDS011;9598;50.954;3.112;2023-04-15T02:16:43;5.13;;;4.72;;
18931;SDS011;9598;50.954;3.112;2023-04-15T02:21:47;4.40;;;4.00;;
18931;SDS011;9598;50.954;3.112;2023-04-15T02:26:52;3.90;;;3.60;;
18931;SDS011;9598;50.954;3.112;2023-04-15T02:31:55;4.50;;;4.10;;
18931;SDS011;9598;50.954;3.112;2023-04-15T02:36:57;4.10;;;3.80;;
18931;SDS011;9598;50.954;3.112;2023-04-15T02:42:01;4.22;;;3.92;;
18931;SDS011;9598;50.954;3.112;2023-04-15T02:47:05;4.63;;;4.22;;
18931;SDS011;9598;50.954;3.112;2023-04-15T02:52:07;4.95;;;4.45;;
18931;SDS011;9598;50.954;3.112;2023-04-15T02:57:11;5.00;;;4.60;;
18931;SDS011;9598;50.954;3.112;2023-04-15T03:02:13;5.32;;;4.82;;
18931;SDS011;9598;50.954;3.112;2023-04-15T03:07:16;6.28;;;5.78;;
18931;SDS011;9598;50.954;3.112;2023-04-15T03:12:20;6.60;;;6.00;;
18931;SDS011;9598;50.954;3.112;2023-04-15T03:17:25;7.25;;;6.65;;
18931;SDS011;9598;50.954;3.112;2023-04-15T03:22:27;8.70;;;7.90;;
18931;SDS011;9598;50.954;3.112;2023-04-15T03:27:31;8.77;;;7.88;;
18931;SDS011;9598;50.954;3.112;2023-04-15T03:32:36;7.40;;;6.75;;
18931;SDS011;9598;50.954;3.112;2023-04-15T03:37:40;8.82;;;8.05;;
18931;SDS011;9598;50.954;3.112;2023-04-15T03:42:43;8.13;;;7.43;;
18931;SDS011;9598;50.954;3.112;2023-04-15T03:47:45;10.10;;;9.10;;
18931;SDS011;9598;50.954;3.112;2023-04-15T03:52:48;8.77;;;8.07;;
18931;SDS011;9598;50.954;3.112;2023-04-15T03:57:52;9.05;;;8.23;;
18931;SDS011;9598;50.954;3.112;2023-04-15T04:02:54;9.40;;;8.50;;
18931;SDS011;9598;50.954;3.112;2023-04-15T04:07:56;9.45;;;8.55;;
18931;SDS011;9598;50.954;3.112;2023-04-15T04:13:00;10.38;;;9.07;;
18931;SDS011;9598;50.954;3.112;2023-04-15T04:18:02;9.68;;;8.77;;
18931;SDS011;9598;50.954;3.112;2023-04-15T04:23:04;9.30;;;8.48;;
18931;SDS011;9598;50.954;3.112;2023-04-15T04:28:07;10.30;;;9.30;;
18931;SDS011;9598;50.954;3.112;2023-04-15T04:33:10;10.30;;;9.40;;
18931;SDS011;9598;50.954;3.112;2023-04-15T04:38:13;10.73;;;9.75;;
18931;SDS011;9598;50.954;3.112;2023-04-15T04:43:16;9.95;;;9.05;;
18931;SDS011;9598;50.954;3.112;2023-04-15T04:48:18;9.98;;;8.98;;
18931;SDS011;9598;50.954;3.112;2023-04-15T04:53:20;10.15;;;9.27;;
18931;SDS011;9598;50.954;3.112;2023-04-15T04:58:24;9.73;;;8.80;;
18931;SDS011;9598;50.954;3.112;2023-04-15T05:03:26;10.23;;;9.32;;
18931;SDS011;9598;50.954;3.112;2023-04-15T05:08:28;11.85;;;10.75;;
18931;SDS011;9598;50.954;3.112;2023-04-15T05:13:32;13.95;;;12.52;;
18931;SDS011;9598;50.954;3.112;2023-04-15T05:18:34;14.77;;;13.27;;
18931;SDS011;9598;50.954;3.112;2023-04-15T05:23:37;15.90;;;14.32;;
18931;SDS011;9598;50.954;3.112;2023-04-15T05:28:40;16.00;;;14.40;;
18931;SDS011;9598;50.954;3.112;2023-04-15T05:33:43;17.02;;;15.25;;
18931;SDS011;9598;50.954;3.112;2023-04-15T05:38:45;16.98;;;15.30;;
18931;SDS011;9598;50.954;3.112;2023-04-15T05:43:48;16.42;;;14.73;;
18931;SDS011;9598;50.954;3.112;2023-04-15T05:48:50;15.77;;;14.07;;
18931;SDS011;9598;50.954;3.112;2023-04-15T05:53:52;16.08;;;12.68;;
18931;SDS011;9598;50.954;3.112;2023-04-15T05:58:56;13.70;;;12.30;;
18931;SDS011;9598;50.954;3.112;2023-04-15T06:03:59;12.95;;;11.45;;
18931;SDS011;9598;50.954;3.112;2023-04-15T06:09:01;13.95;;;11.23;;
18931;SDS011;9598;50.954;3.112;2023-04-15T06:14:05;14.25;;;11.40;;
18931;SDS011;9598;50.954;3.112;2023-04-15T06:19:07;11.35;;;9.85;;
18931;SDS011;9598;50.954;3.112;2023-04-15T06:24:10;12.88;;;11.55;;
18931;SDS011;9598;50.954;3.112;2023-04-15T06:29:13;12.55;;;11.23;;
18931;SDS011;9598;50.954;3.112;2023-04-15T06:34:15;15.63;;;12.07;;
18931;SDS011;9598;50.954;3.112;2023-04-15T06:39:17;12.30;;;11.13;;
18931;SDS011;9598;50.954;3.112;2023-04-15T06:44:21;12.95;;;11.32;;
18931;SDS011;9598;50.954;3.112;2023-04-15T06:49:23;12.07;;;10.45;;
18931;SDS011;9598;50.954;3.112;2023-04-15T06:54:25;11.07;;;9.98;;
18931;SDS011;9598;50.954;3.112;2023-04-15T06:59:29;13.80;;;11.10;;
18931;SDS011;9598;50.954;3.112;2023-04-15T07:04:31;11.90;;;10.73;;
18931;SDS011;9598;50.954;3.112;2023-04-15T07:09:34;13.65;;;11.30;;
18931;SDS011;9598;50.954;3.112;2023-04-15T07:14:37;14.27;;;11.70;;
18931;SDS011;9598;50.954;3.112;2023-04-15T07:19:39;13.98;;;12.20;;
18931;SDS011;9598;50.954;3.112;2023-04-15T07:24:41;17.30;;;13.05;;
18931;SDS011;9598;50.954;3.112;2023-04-15T07:29:44;18.15;;;14.07;;
18931;SDS011;9598;50.954;3.112;2023-04-15T07:34:47;16.17;;;13.35;;
18931;SDS011;9598;50.954;3.112;2023-04-15T07:39:49;14.57;;;11.80;;
18931;SDS011;9598;50.954;3.112;2023-04-15T07:44:53;13.27;;;11.82;;
18931;SDS011;9598;50.954;3.112;2023-04-15T07:49:55;12.73;;;11.25;;
18931;SDS011;9598;50.954;3.112;2023-04-15T07:54:57;12.70;;;11.30;;
18931;SDS011;9598;50.954;3.112;2023-04-15T08:00:01;12.95;;;11.50;;
18931;SDS011;9598;50.954;3.112;2023-04-15T08:05:13;12.55;;;10.27;;
18931;SDS011;9598;50.954;3.112;2023-04-15T08:10:15;11.52;;;10.15;;
18931;SDS011;9598;50.954;3.112;2023-04-15T08:15:19;9.63;;;8.63;;
18931;SDS011;9598;50.954;3.112;2023-04-15T08:20:21;10.18;;;8.63;;
18931;SDS011;9598;50.954;3.112;2023-04-15T08:25:23;11.40;;;8.70;;
18931;SDS011;9598;50.954;3.112;2023-04-15T08:30:28;10.95;;;9.30;;
18931;SDS011;9598;50.954;3.112;2023-04-15T08:35:30;9.30;;;7.70;;
18931;SDS011;9598;50.954;3.112;2023-04-15T08:40:40;7.18;;;6.25;;
18931;SDS011;9598;50.954;3.112;2023-04-15T08:51:07;8.50;;;7.65;;
18931;SDS011;9598;50.954;3.112;2023-04-15T08:56:10;10.93;;;8.98;;
18931;SDS011;9598;50.954;3.112;2023-04-15T09:01:14;11.65;;;10.43;;
18931;SDS011;9598;50.954;3.112;2023-04-15T09:06:18;11.50;;;10.07;;
18931;SDS011;9598;50.954;3.112;2023-04-15T09:11:21;14.60;;;11.23;;
18931;SDS011;9598;50.954;3.112;2023-04-15T09:16:24;12.20;;;10.90;;
18931;SDS011;9598;50.954;3.112;2023-04-15T09:21:27;13.55;;;10.70;;
18931;SDS011;9598;50.954;3.112;2023-04-15T09:26:33;12.70;;;10.27;;
18931;SDS011;9598;50.954;3.112;2023-04-15T09:31:37;12.07;;;9.98;;
18931;SDS011;9598;50.954;3.112;2023-04-15T09:36:56;12.25;;;9.65;;
18931;SDS011;9598;50.954;3.112;2023-04-15T09:42:04;9.68;;;8.68;;
18931;SDS011;9598;50.954;3.112;2023-04-15T09:47:07;10.25;;;7.93;;
18931;SDS011;9598;50.954;3.112;2023-04-15T09:52:12;8.68;;;7.72;;
18931;SDS011;9598;50.954;3.112;2023-04-15T09:57:14;10.15;;;8.40;;
18931;SDS011;9598;50.954;3.112;2023-04-15T10:02:17;9.45;;;8.65;;
18931;SDS011;9598;50.954;3.112;2023-04-15T10:07:30;11.10;;;9.77;;
18931;SDS011;9598;50.954;3.112;2023-04-15T10:12:36;10.55;;;9.48;;
18931;SDS011;9598;50.954;3.112;2023-04-15T10:17:38;11.60;;;10.38;;
18931;SDS011;9598;50.954;3.112;2023-04-15T10:22:45;11.93;;;10.65;;
18931;SDS011;9598;50.954;3.112;2023-04-15T10:27:47;12.50;;;11.20;;
18931;SDS011;9598;50.954;3.112;2023-04-15T10:32:52;13.50;;;11.23;;
18931;SDS011;9598;50.954;3.112;2023-04-15T10:37:55;11.27;;;10.05;;
18931;SDS011;9598;50.954;3.112;2023-04-15T10:42:58;12.55;;;10.38;;
18931;SDS011;9598;50.954;3.112;2023-04-15T10:48:02;11.98;;;10.52;;
18931;SDS011;9598;50.954;3.112;2023-04-15T10:53:10;13.82;;;11.75;;
18931;SDS011;9598;50.954;3.112;2023-04-15T10:58:12;11.15;;;9.63;;
18931;SDS011;9598;50.954;3.112;2023-04-15T11:03:14;10.77;;;9.88;;
18931;SDS011;9598;50.954;3.112;2023-04-15T11:08:18;11.07;;;9.88;;
18931;SDS011;9598;50.954;3.112;2023-04-15T11:13:21;9.40;;;8.55;;
18931;SDS011;9598;50.954;3.112;2023-04-15T11:18:27;12.02;;;10.20;;
18931;SDS011;9598;50.954;3.112;2023-04-15T11:23:36;10.95;;;9.25;;
18931;SDS011;9598;50.954;3.112;2023-04-15T11:28:40;11.93;;;10.73;;
18931;SDS011;9598;50.954;3.112;2023-04-15T11:33:44;8.45;;;7.65;;
18931;SDS011;9598;50.954;3.112;2023-04-15T11:38:48;9.65;;;8.73;;
18931;SDS011;9598;50.954;3.112;2023-04-15T11:43:51;10.20;;;9.10;;
18931;SDS011;9598;50.954;3.112;2023-04-15T11:48:53;9.20;;;8.32;;
18931;SDS011;9598;50.954;3.112;2023-04-15T11:53:57;8.88;;;7.97;;
18931;SDS011;9598;50.954;3.112;2023-04-15T11:58:59;8.18;;;7.22;;
18931;SDS011;9598;50.954;3.112;2023-04-15T12:04:01;9.02;;;7.20;;
18931;SDS011;9598;50.954;3.112;2023-04-15T12:09:12;7.15;;;6.45;;
18931;SDS011;9598;50.954;3.112;2023-04-15T12:14:18;8.02;;;7.32;;
18931;SDS011;9598;50.954;3.112;2023-04-15T12:19:23;8.60;;;7.22;;
18931;SDS011;9598;50.954;3.112;2023-04-15T12:24:29;5.53;;;4.35;;
18931;SDS011;9598;50.954;3.112;2023-04-15T12:29:33;3.75;;;3.35;;
18931;SDS011;9598;50.954;3.112;2023-04-15T12:34:37;4.05;;;3.05;;
18931;SDS011;9598;50.954;3.112;2023-04-15T12:39:42;3.75;;;2.80;;
18931;SDS011;9598;50.954;3.112;2023-04-15T12:44:45;4.50;;;3.83;;
18931;SDS011;9598;50.954;3.112;2023-04-15T12:49:47;5.45;;;4.60;;
18931;SDS011;9598;50.954;3.112;2023-04-15T12:54:51;6.25;;;5.28;;
18931;SDS011;9598;50.954;3.112;2023-04-15T12:59:54;8.40;;;7.50;;
18931;SDS011;9598;50.954;3.112;2023-04-15T13:04:56;10.93;;;9.45;;
18931;SDS011;9598;50.954;3.112;2023-04-15T13:09:59;12.13;;;10.88;;
18931;SDS011;9598;50.954;3.112;2023-04-15T13:15:01;10.93;;;9.88;;
18931;SDS011;9598;50.954;3.112;2023-04-15T13:20:04;8.90;;;8.10;;
18931;SDS011;9598;50.954;3.112;2023-04-15T13:25:09;9.02;;;8.23;;
18931;SDS011;9598;50.954;3.112;2023-04-15T13:30:12;8.63;;;7.82;;
18931;SDS011;9598;50.954;3.112;2023-04-15T13:35:14;11.80;;;10.65;;
18931;SDS011;9598;50.954;3.112;2023-04-15T13:40:18;11.57;;;10.50;;
18931;SDS011;9598;50.954;3.112;2023-04-15T13:45:21;9.85;;;8.95;;
18931;SDS011;9598;50.954;3.112;2023-04-15T13:50:23;12.70;;;11.10;;
18931;SDS011;9598;50.954;3.112;2023-04-15T13:55:26;13.13;;;11.77;;
18931;SDS011;9598;50.954;3.112;2023-04-15T14:00:29;12.38;;;10.80;;
18931;SDS011;9598;50.954;3.112;2023-04-15T14:05:32;11.65;;;10.52;;
18931;SDS011;9598;50.954;3.112;2023-04-15T14:10:35;11.20;;;10.15;;
18931;SDS011;9598;50.954;3.112;2023-04-15T14:15:38;11.15;;;9.98;;
18931;SDS011;9598;50.954;3.112;2023-04-15T14:20:40;9.85;;;8.55;;
18931;SDS011;9598;50.954;3.112;2023-04-15T14:25:43;10.85;;;9.73;;
18931;SDS011;9598;50.954;3.112;2023-04-15T14:30:45;10.02;;;9.02;;
18931;SDS011;9598;50.954;3.112;2023-04-15T14:35:48;9.35;;;8.38;;
18931;SDS011;9598;50.954;3.112;2023-04-15T14:40:51;9.40;;;8.20;;
18931;SDS011;9598;50.954;3.112;2023-04-15T14:45:53;10.98;;;8.43;;
18931;SDS011;9598;50.954;3.112;2023-04-15T14:50:56;8.00;;;7.20;;
18931;SDS011;9598;50.954;3.112;2023-04-15T14:56:01;9.57;;;7.38;;
18931;SDS011;9598;50.954;3.112;2023-04-15T15:01:04;6.40;;;5.30;;
18931;SDS011;9598;50.954;3.112;2023-04-15T15:06:06;6.70;;;5.03;;
18931;SDS011;9598;50.954;3.112;2023-04-15T15:11:09;5.00;;;4.13;;
18931;SDS011;9598;50.954;3.112;2023-04-15T15:16:11;3.83;;;3.00;;
18931;SDS011;9598;50.954;3.112;2023-04-15T15:21:14;3.25;;;2.25;;
18931;SDS011;9598;50.954;3.112;2023-04-15T15:26:17;4.03;;;1.90;;
18931;SDS011;9598;50.954;3.112;2023-04-15T15:31:19;2.78;;;1.42;;
18931;SDS011;9598;50.954;3.112;2023-04-15T15:36:21;4.30;;;2.25;;
18931;SDS011;9598;50.954;3.112;2023-04-15T15:41:25;4.60;;;2.40;;
18931;SDS011;9598;50.954;3.112;2023-04-15T15:46:27;2.25;;;2.05;;
18931;SDS011;9598;50.954;3.112;2023-04-15T15:51:30;4.00;;;2.20;;
18931;SDS011;9598;50.954;3.112;2023-04-15T15:56:34;3.13;;;1.95;;
18931;SDS011;9598;50.954;3.112;2023-04-15T16:01:37;3.20;;;1.85;;
18931;SDS011;9598;50.954;3.112;2023-04-15T16:06:39;2.20;;;1.73;;
18931;SDS011;9598;50.954;3.112;2023-04-15T16:11:45;2.45;;;2.00;;
18931;SDS011;9598;50.954;3.112;2023-04-15T16:16:47;3.33;;;1.60;;
18931;SDS011;9598;50.954;3.112;2023-04-15T16:21:49;2.55;;;1.48;;
18931;SDS011;9598;50.954;3.112;2023-04-15T16:26:52;4.65;;;2.00;;
18931;SDS011;9598;50.954;3.112;2023-04-15T16:31:57;3.80;;;2.97;;
18931;SDS011;9598;50.954;3.112;2023-04-15T16:36:59;4.50;;;2.20;;
18931;SDS011;9598;50.954;3.112;2023-04-15T16:42:03;3.80;;;2.08;;
18931;SDS011;9598;50.954;3.112;2023-04-15T16:47:06;4.50;;;2.35;;
18931;SDS011;9598;50.954;3.112;2023-04-15T16:52:11;3.50;;;2.30;;
18931;SDS011;9598;50.954;3.112;2023-04-15T16:57:14;3.50;;;2.15;;
18931;SDS011;9598;50.954;3.112;2023-04-15T17:02:16;4.93;;;2.10;;
18931;SDS011;9598;50.954;3.112;2023-04-15T17:07:19;3.75;;;2.17;;
18931;SDS011;9598;50.954;3.112;2023-04-15T17:12:22;2.10;;;1.60;;
18931;SDS011;9598;50.954;3.112;2023-04-15T17:17:24;3.15;;;2.38;;
18931;SDS011;9598;50.954;3.112;2023-04-15T17:22:26;3.72;;;2.20;;
18931;SDS011;9598;50.954;3.112;2023-04-15T17:27:30;3.67;;;2.00;;
18931;SDS011;9598;50.954;3.112;2023-04-15T17:32:32;6.45;;;2.97;;
18931;SDS011;9598;50.954;3.112;2023-04-15T17:37:34;9.50;;;5.82;;
18931;SDS011;9598;50.954;3.112;2023-04-15T17:42:38;8.77;;;6.60;;
18931;SDS011;9598;50.954;3.112;2023-04-15T17:47:40;9.05;;;6.25;;
18931;SDS011;9598;50.954;3.112;2023-04-15T17:52:42;8.20;;;4.63;;
18931;SDS011;9598;50.954;3.112;2023-04-15T17:57:48;11.07;;;6.00;;
18931;SDS011;9598;50.954;3.112;2023-04-15T18:02:51;6.93;;;4.35;;
18931;SDS011;9598;50.954;3.112;2023-04-15T18:07:53;7.10;;;3.60;;
18931;SDS011;9598;50.954;3.112;2023-04-15T18:12:56;8.52;;;5.85;;
18931;SDS011;9598;50.954;3.112;2023-04-15T18:17:58;9.73;;;5.50;;
18931;SDS011;9598;50.954;3.112;2023-04-15T18:23:00;7.53;;;4.97;;
18931;SDS011;9598;50.954;3.112;2023-04-15T18:28:04;8.35;;;4.95;;
18931;SDS011;9598;50.954;3.112;2023-04-15T18:33:06;12.35;;;5.57;;
18931;SDS011;9598;50.954;3.112;2023-04-15T18:38:08;7.53;;;5.45;;
18931;SDS011;9598;50.954;3.112;2023-04-15T18:43:12;7.93;;;5.18;;
18931;SDS011;9598;50.954;3.112;2023-04-15T18:48:14;8.90;;;5.53;;
18931;SDS011;9598;50.954;3.112;2023-04-15T18:53:16;7.00;;;5.47;;
18931;SDS011;9598;50.954;3.112;2023-04-15T18:58:20;8.32;;;5.05;;
18931;SDS011;9598;50.954;3.112;2023-04-15T19:03:22;9.82;;;5.65;;
18931;SDS011;9598;50.954;3.112;2023-04-15T19:08:24;9.02;;;5.80;;
18931;SDS011;9598;50.954;3.112;2023-04-15T19:13:30;7.35;;;6.13;;
18931;SDS011;9598;50.954;3.112;2023-04-15T19:18:32;12.15;;;6.10;;
18931;SDS011;9598;50.954;3.112;2023-04-15T19:23:34;11.38;;;6.35;;
18931;SDS011;9598;50.954;3.112;2023-04-15T19:28:37;13.40;;;6.47;;
18931;SDS011;9598;50.954;3.112;2023-04-15T19:33:40;10.90;;;6.85;;
18931;SDS011;9598;50.954;3.112;2023-04-15T19:38:42;12.82;;;7.13;;
18931;SDS011;9598;50.954;3.112;2023-04-15T19:43:46;10.02;;;7.55;;
18931;SDS011;9598;50.954;3.112;2023-04-15T19:48:48;10.77;;;7.47;;
18931;SDS011;9598;50.954;3.112;2023-04-15T19:53:50;8.10;;;6.22;;
18931;SDS011;9598;50.954;3.112;2023-04-15T19:58:54;9.77;;;7.32;;
18931;SDS011;9598;50.954;3.112;2023-04-15T20:03:56;7.95;;;7.15;;
18931;SDS011;9598;50.954;3.112;2023-04-15T20:08:58;10.98;;;8.35;;
18931;SDS011;9598;50.954;3.112;2023-04-15T20:14:02;13.30;;;8.13;;
18931;SDS011;9598;50.954;3.112;2023-04-15T20:19:04;13.95;;;8.70;;
18931;SDS011;9598;50.954;3.112;2023-04-15T20:24:08;14.25;;;7.90;;
18931;SDS011;9598;50.954;3.112;2023-04-15T20:29:12;14.82;;;8.00;;
18931;SDS011;9598;50.954;3.112;2023-04-15T20:34:14;15.23;;;8.65;;
18931;SDS011;9598;50.954;3.112;2023-04-15T20:39:16;13.35;;;8.80;;
18931;SDS011;9598;50.954;3.112;2023-04-15T20:44:19;12.35;;;8.45;;
18931;SDS011;9598;50.954;3.112;2023-04-15T20:49:22;12.18;;;7.68;;
18931;SDS011;9598;50.954;3.112;2023-04-15T20:54:24;11.52;;;7.30;;
18931;SDS011;9598;50.954;3.112;2023-04-15T20:59:27;11.73;;;6.68;;
18931;SDS011;9598;50.954;3.112;2023-04-15T21:04:29;10.32;;;6.70;;
18931;SDS011;9598;50.954;3.112;2023-04-15T21:09:31;11.13;;;6.50;;
18931;SDS011;9598;50.954;3.112;2023-04-15T21:14:35;12.30;;;7.25;;
18931;SDS011;9598;50.954;3.112;2023-04-15T21:19:37;12.48;;;7.28;;
18931;SDS011;9598;50.954;3.112;2023-04-15T21:24:40;9.30;;;7.28;;
18931;SDS011;9598;50.954;3.112;2023-04-15T21:29:44;10.73;;;6.95;;
18931;SDS011;9598;50.954;3.112;2023-04-15T21:34:46;12.68;;;7.50;;
18931;SDS011;9598;50.954;3.112;2023-04-15T21:39:48;12.65;;;7.13;;
18931;SDS011;9598;50.954;3.112;2023-04-15T21:44:51;10.77;;;6.95;;
18931;SDS011;9598;50.954;3.112;2023-04-15T21:49:53;13.35;;;7.38;;
18931;SDS011;9598;50.954;3.112;2023-04-15T21:54:55;9.10;;;6.95;;
18931;SDS011;9598;50.954;3.112;2023-04-15T21:59:59;10.55;;;6.80;;
18931;SDS011;9598;50.954;3.112;2023-04-15T22:05:01;9.48;;;6.43;;
18931;SDS011;9598;50.954;3.112;2023-04-15T22:10:04;10.40;;;7.38;;
18931;SDS011;9598;50.954;3.112;2023-04-15T22:15:09;8.90;;;7.22;;
18931;SDS011;9598;50.954;3.112;2023-04-15T22:20:11;10.30;;;6.45;;
18931;SDS011;9598;50.954;3.112;2023-04-15T22:25:13;11.68;;;6.65;;
18931;SDS011;9598;50.954;3.112;2023-04-15T22:30:17;10.95;;;7.47;;
18931;SDS011;9598;50.954;3.112;2023-04-15T22:35:19;9.82;;;6.72;;
18931;SDS011;9598;50.954;3.112;2023-04-15T22:40:21;10.05;;;7.03;;
18931;SDS011;9598;50.954;3.112;2023-04-15T22:45:25;10.85;;;7.82;;
18931;SDS011;9598;50.954;3.112;2023-04-15T22:50:27;10.30;;;6.57;;
18931;SDS011;9598;50.954;3.112;2023-04-15T22:55:29;11.13;;;7.38;;
18931;SDS011;9598;50.954;3.112;2023-04-15T23:00:32;10.68;;;5.88;;
18931;SDS011;9598;50.954;3.112;2023-04-15T23:05:35;8.35;;;6.20;;
18931;SDS011;9598;50.954;3.112;2023-04-15T23:10:39;9.50;;;6.20;;
18931;SDS011;9598;50.954;3.112;2023-04-15T23:15:42;13.55;;;6.28;;
18931;SDS011;9598;50.954;3.112;2023-04-15T23:20:44;8.80;;;6.45;;
18931;SDS011;9598;50.954;3.112;2023-04-15T23:25:46;9.60;;;5.97;;
18931;SDS011;9598;50.954;3.112;2023-04-15T23:30:50;11.13;;;5.70;;
18931;SDS011;9598;50.954;3.112;2023-04-15T23:35:52;10.95;;;5.80;;
18931;SDS011;9598;50.954;3.112;2023-04-15T23:40:54;12.80;;;6.35;;
18931;SDS011;9598;50.954;3.112;2023-04-15T23:45:58;7.72;;;5.90;;
18931;SDS011;9598;50.954;3.112;2023-04-15T23:51:00;9.20;;;6.43;;
18931;SDS011;9598;50.954;3.112;2023-04-15T23:56:02;10.98;;;7.10;;
